Time;durP1;ratioP1;P1;durP2;ratioP2;P2;SDS_P1;SDS_P2;PMS_P1;PMS_P2;Temp;Humidity;BMP_temperature;BMP_pressure;BME280_temperature;BME280_humidity;BME280_pressure;Samples;Min_cycle;Max_cycle;Signal;HPM_P1;HPM_P2
2021/12/31 11:55:23;;;;;;;;;;;;;;;22.97;43.91;97116.81;4968653;27;1974225;-74
2021/12/31 11:57:49;;;;;;;;;;;;;;;22.25;45.17;97128.25;5013450;28;19932;-79
2021/12/31 12:02:18;;;;;;;8.48;1.25;;;;;;;23.49;46.58;97124.34;2065409;28;21151;-83
2021/12/31 12:13:25;;;;;;;;;;;;;;;17.23;56.16;97153.91;2090168;27;19925;-59
2021/12/31 12:14:40;;;;;;;;;;;;;;;17.76;53.62;97157.16;2088968;28;19913;-59
2021/12/31 12:15:41;;;;;;;;;;;;;;;18.05;52.76;97148.41;2088614;28;19909;-59
2021/12/31 12:16:57;;;;;;;;;;;;;;;18.08;52.56;97145.50;2088570;28;19926;-59
2021/12/31 12:17:58;;;;;;;;;;;;;;;17.96;52.82;97149.25;2085258;28;19948;-59
2021/12/31 12:19:01;;;;;;;;;;;;;;;17.84;52.89;97153.84;2089042;28;19920;-59
2021/12/31 12:20:01;;;;;;;;;;;;;;;17.58;53.78;97158.75;2090163;28;19905;-59
2021/12/31 12:21:01;;;;;;;;;;;;;;;17.49;54.15;97151.66;2089133;28;19915;-59
2021/12/31 12:22:01;;;;;;;;;;;;;;;17.40;53.99;97147.97;2088246;28;19995;-59
2021/12/31 12:23:02;;;;;;;;;;;;;;;17.12;54.57;97138.97;2093305;28;19917;-59
2021/12/31 12:24:04;;;;;;;;;;;;;;;16.79;55.74;97154.09;2091928;28;19913;-59
2021/12/31 12:25:12;;;;;;;;;;;;;;;16.76;56.17;97147.28;2091371;28;19913;-59
2021/12/31 12:27:13;;;;;;;;;;;;;;;17.03;55.55;97145.91;2092166;28;20007;-59
2021/12/31 12:28:15;;;;;;;;;;;;;;;17.05;54.90;97149.25;1987772;28;19925;-59
2021/12/31 12:29:24;;;;;;;;;;;;;;;17.17;55.01;97144.69;1949982;28;89430;-59
2021/12/31 12:30:26;;;;;;;;;;;;;;;17.13;55.03;97141.50;2045217;28;75963;-59
2021/12/31 12:31:34;;;;;;;;;;;;;;;16.84;55.74;97137.88;2071636;28;19925;-59
2021/12/31 12:33:55;;;;;;;;;;;;;;;17.03;55.86;97121.25;2069654;28;19925;-59
2021/12/31 12:34:57;;;;;;;;;;;;;;;16.86;55.90;97133.31;2077154;28;19932;-59
2021/12/31 12:36:01;;;;;;;;;;;;;;;16.45;57.17;97127.06;2075236;28;20592;-59
2021/12/31 12:37:03;;;;;;;;;;;;;;;16.52;56.96;97120.25;2071595;28;19933;-58
2021/12/31 12:38:04;;;;;;;;;;;;;;;16.48;56.95;97130.25;2036157;28;19951;-59
2021/12/31 12:39:06;;;;;;;;;;;;;;;16.30;57.33;97132.63;2075986;28;19932;-59
2021/12/31 12:40:08;;;;;;;;;;;;;;;16.28;57.53;97136.38;2069577;28;20427;-59
2021/12/31 12:41:10;;;;;;;;;;;;;;;16.07;57.95;97141.63;2073275;28;19930;-58
2021/12/31 12:42:12;;;;;;;;;;;;;;;16.05;58.33;97138.28;2075915;28;19945;-58
2021/12/31 12:43:16;;;;;;;;;;;;;;;16.06;58.39;97129.41;2073564;28;20285;-59
2021/12/31 12:44:18;;;;;;;;;;;;;;;15.95;58.78;97122.34;2072921;28;20370;-58
2021/12/31 12:45:19;;;;;;;;;;;;;;;15.79;58.97;97131.53;2075717;28;19925;-59
2021/12/31 12:46:24;;;;;;;;;;;;;;;15.90;59.16;97130.66;2073834;28;19957;-59
2021/12/31 12:47:25;;;;;;;;;;;;;;;15.92;58.63;97128.75;2074993;28;19977;-58
2021/12/31 12:48:29;;;;;;;;;;;;;;;16.02;58.56;97126.19;2074337;28;19937;-59
2021/12/31 13:02:41;;;;;;;1.77;1.30;;;;;;;14.59;63.45;97114.59;2093050;28;20543;-67
2021/12/31 13:03:53;;;;;;;2.30;1.75;;;;;;;14.04;65.88;97105.59;2037942;28;20241;-65
2021/12/31 13:05:07;;;;;;;1.65;1.10;;;;;;;13.63;67.61;97091.91;2048845;28;20256;-65
2021/12/31 13:06:08;;;;;;;1.58;0.95;;;;;;;13.60;67.73;97089.50;2073481;28;20213;-65
2021/12/31 13:07:12;;;;;;;1.83;1.30;;;;;;;13.20;68.96;97075.72;2076013;28;20201;-65
2021/12/31 13:08:17;;;;;;;1.85;1.17;;;;;;;13.59;68.02;97072.03;2079471;28;20711;-65
2021/12/31 13:09:19;;;;;;;2.95;1.20;;;;;;;13.33;68.98;97073.06;2079292;28;20208;-65
2021/12/31 13:10:27;;;;;;;1.10;0.90;;;;;;;12.87;70.59;97069.28;2079433;28;20208;-65
2021/12/31 13:11:30;;;;;;;1.00;0.80;;;;;;;12.43;73.45;97092.44;2079089;28;20233;-65
2021/12/31 13:12:33;;;;;;;7.85;1.00;;;;;;;12.55;72.89;97089.94;2079590;28;20189;-65
2021/12/31 13:13:37;;;;;;;1.35;1.10;;;;;;;12.61;73.25;97084.25;2079626;28;20568;-65
2021/12/31 13:14:38;;;;;;;1.77;1.00;;;;;;;12.75;72.90;97088.56;2078850;28;20193;-65
2021/12/31 13:15:40;;;;;;;1.60;1.00;;;;;;;12.98;72.97;97094.81;2079659;28;20620;-65
2021/12/31 13:16:43;;;;;;;2.03;1.08;;;;;;;12.98;72.36;97092.19;2078706;28;20216;-65
2021/12/31 13:17:58;;;;;;;2.08;1.00;;;;;;;12.97;72.68;97085.25;2079462;28;20189;-65
2021/12/31 13:19:05;;;;;;;1.65;0.93;;;;;;;12.92;71.42;97088.22;2078973;28;20801;-65
2021/12/31 13:20:13;;;;;;;1.75;1.33;;;;;;;13.08;72.36;97093.22;2078083;28;20205;-65
2021/12/31 13:21:14;;;;;;;1.20;0.80;;;;;;;13.14;71.84;97092.78;2078789;28;20197;-65
2021/12/31 13:22:16;;;;;;;0.90;0.80;;;;;;;13.95;69.26;97096.56;2079279;28;20274;-64
2021/12/31 13:23:18;;;;;;;1.40;1.13;;;;;;;14.67;67.07;97079.75;2079363;28;20197;-65
2021/12/31 13:24:20;;;;;;;4.35;1.20;;;;;;;14.37;67.82;97067.94;2079464;28;20201;-66
2021/12/31 13:25:58;;;;;;;1.17;0.95;;;;;;;14.40;67.58;97058.97;2079396;28;20208;-66
2021/12/31 13:27:05;;;;;;;2.67;1.30;;;;;;;13.68;69.72;97041.56;2077567;28;20267;-66
2021/12/31 13:28:12;;;;;;;1.48;1.20;;;;;;;13.27;71.41;97053.31;2077901;28;20792;-65
2021/12/31 13:29:13;;;;;;;2.83;1.52;;;;;;;12.97;72.46;97036.13;2078205;28;20197;-65
2021/12/31 13:30:15;;;;;;;2.28;1.10;;;;;;;12.79;73.68;97048.78;2078111;28;20263;-65
2021/12/31 13:31:33;;;;;;;1.85;1.10;;;;;;;12.66;74.54;97045.34;2077746;28;20204;-66
2021/12/31 13:32:45;;;;;;;2.20;1.10;;;;;;;12.53;75.20;97057.69;2077360;28;20188;-65
2021/12/31 13:33:49;;;;;;;1.52;1.08;;;;;;;12.20;74.96;97027.53;2076366;28;20196;-65
2021/12/31 13:34:52;;;;;;;1.85;1.40;;;;;;;12.19;76.37;97062.59;2078136;28;20197;-65
2021/12/31 13:36:20;;;;;;;1.48;1.30;;;;;;;11.90;77.39;97061.94;2077942;28;20209;-66
2021/12/31 13:37:30;;;;;;;1.45;1.17;;;;;;;11.90;78.21;97062.78;2077572;28;20229;-66
2021/12/31 13:39:01;;;;;;;2.53;1.20;;;;;;;12.25;76.74;97049.06;2078887;28;20779;-66
2021/12/31 13:40:11;;;;;;;5.38;1.77;;;;;;;12.32;76.67;97047.69;2077824;28;20197;-66
2021/12/31 13:41:21;;;;;;;1.35;1.20;;;;;;;12.18;76.55;97024.19;2077158;28;20695;-65
2021/12/31 13:42:22;;;;;;;1.98;1.52;;;;;;;12.60;75.87;97043.16;2077655;28;20299;-66
2021/12/31 13:43:25;;;;;;;2.45;1.50;;;;;;;12.52;75.41;97040.22;2077623;28;20258;-66
2021/12/31 13:44:30;;;;;;;2.08;1.17;;;;;;;12.40;76.45;97031.41;2075489;28;20201;-65
2021/12/31 13:45:31;;;;;;;2.80;1.40;;;;;;;12.58;75.62;97045.03;2077874;28;20212;-65
2021/12/31 13:46:40;;;;;;;1.50;1.15;;;;;;;12.76;75.20;97054.28;2068992;28;20225;-65
2021/12/31 13:47:42;;;;;;;1.80;1.20;;;;;;;12.96;74.76;97049.41;2070263;28;20352;-65
2021/12/31 13:48:43;;;;;;;3.42;1.25;;;;;;;12.81;74.54;97049.53;2077670;28;20201;-65
2021/12/31 13:49:49;;;;;;;1.85;1.48;;;;;;;12.78;74.94;97055.00;2077039;28;20193;-65
2021/12/31 13:50:50;;;;;;;2.40;1.60;;;;;;;12.79;75.15;97054.06;2076953;28;20350;-65
2021/12/31 13:51:52;;;;;;;1.30;0.90;;;;;;;12.99;74.34;97043.91;2069364;28;20226;-65
2021/12/31 13:52:54;;;;;;;2.10;1.45;;;;;;;12.86;73.98;97036.06;2069833;28;20202;-66
2021/12/31 13:53:56;;;;;;;2.78;1.88;;;;;;;12.50;75.00;97058.72;2069713;28;20202;-66
2021/12/31 13:55:01;;;;;;;1.20;0.98;;;;;;;12.40;76.84;97050.63;2069884;28;20205;-66
2021/12/31 13:56:03;;;;;;;2.10;1.20;;;;;;;12.87;76.58;97061.41;2076837;28;20619;-66
2021/12/31 13:57:25;;;;;;;1.75;1.00;;;;;;;13.68;74.12;97056.50;2077367;28;20229;-62
2021/12/31 13:58:27;;;;;;;307.83;167.68;;;;;;;13.66;73.95;97064.50;2077789;28;20205;-64
2021/12/31 13:59:40;;;;;;;189.00;108.95;;;;;;;13.65;73.72;97068.94;2077941;28;20700;-62
2021/12/31 14:00:42;;;;;;;281.40;158.98;;;;;;;13.54;73.78;97060.97;2077886;28;20216;-62
2021/12/31 14:02:14;;;;;;;19.00;10.35;;;;;;;13.67;73.28;97078.53;2077196;28;20220;-62
2021/12/31 14:03:17;;;;;;;7.68;4.10;;;;;;;13.65;73.41;97049.69;2078253;28;20675;-62
2021/12/31 14:04:20;;;;;;;4.10;2.20;;;;;;;14.55;71.40;97078.03;2079235;28;20236;-62
2021/12/31 14:05:27;;;;;;;2.38;1.65;;;;;;;15.36;67.51;97076.06;2079172;28;20241;-62
2021/12/31 14:06:29;;;;;;;1.65;1.38;;;;;;;15.31;67.88;97072.97;2078537;28;20223;-62
2021/12/31 14:07:39;;;;;;;1.20;0.90;;;;;;;15.14;66.21;97075.16;2077577;28;20200;-62
2021/12/31 14:08:42;;;;;;;2.20;1.00;;;;;;;15.39;66.41;97083.75;2079481;28;20204;-60
2021/12/31 14:09:45;;;;;;;1.95;1.15;;;;;;;15.98;64.10;97091.25;2078845;28;20209;-60
2021/12/31 14:10:48;;;;;;;1.20;0.90;;;;;;;16.01;63.22;97079.59;2079131;28;20227;-60
2021/12/31 14:11:50;;;;;;;1.85;1.05;;;;;;;15.55;64.61;97075.44;2078721;28;20308;-60
2021/12/31 14:13:09;;;;;;;3.30;1.27;;;;;;;14.80;67.02;97072.56;2077393;28;20197;-60
2021/12/31 14:14:10;;;;;;;3.95;0.90;;;;;;;14.28;68.60;97066.00;2073030;28;20709;-60
2021/12/31 14:15:12;;;;;;;1.83;1.45;;;;;;;14.18;70.48;97067.69;2073472;28;20194;-60
2021/12/31 14:16:13;;;;;;;3.15;1.33;;;;;;;14.22;70.24;97067.31;2073211;28;20286;-60
2021/12/31 14:17:15;;;;;;;1.67;1.15;;;;;;;14.36;69.07;97068.91;2072925;28;20271;-60
2021/12/31 14:18:17;;;;;;;1.80;1.13;;;;;;;14.69;68.56;97082.25;2073529;28;20193;-60
2021/12/31 14:19:18;;;;;;;1.95;1.30;;;;;;;15.01;68.49;97088.50;2073482;28;20206;-60
2021/12/31 14:20:24;;;;;;;1.75;1.20;;;;;;;15.52;67.00;97094.97;2073630;28;20633;-60
2021/12/31 14:21:26;;;;;;;1.42;1.10;;;;;;;15.84;66.17;97103.91;2073161;28;20213;-60
2021/12/31 14:22:28;;;;;;;2.25;0.90;;;;;;;16.03;65.48;97109.34;2073028;28;20205;-60
2021/12/31 14:23:29;;;;;;;1.40;1.20;;;;;;;16.37;64.98;97101.28;2073656;28;20194;-60
2021/12/31 14:24:31;;;;;;;1.83;1.08;;;;;;;16.65;63.63;97110.31;2073487;28;20237;-60
2021/12/31 14:25:41;;;;;;;1.98;1.20;;;;;;;16.94;62.16;97099.09;2073612;28;20567;-60
2021/12/31 14:26:42;;;;;;;1.73;1.05;;;;;;;17.07;60.93;97115.59;2075136;28;20538;-62
2021/12/31 14:27:44;;;;;;;1.58;0.90;;;;;;;16.97;61.21;97119.97;2073101;28;20194;-63
2021/12/31 14:28:47;;;;;;;1.20;1.00;;;;;;;17.11;60.76;97105.53;2073467;28;20861;-62
2021/12/31 14:29:48;;;;;;;1.45;1.02;;;;;;;17.44;59.53;97125.56;2072233;28;20277;-62
2021/12/31 14:30:50;;;;;;;2.65;1.60;;;;;;;17.23;60.14;97124.81;2071285;28;20213;-62
2021/12/31 14:31:51;;;;;;;2.33;1.33;;;;;;;16.78;60.62;97137.41;2073292;28;20271;-62
2021/12/31 14:32:53;;;;;;;1.67;1.45;;;;;;;16.99;60.85;97123.31;2073645;28;20205;-62
2021/12/31 14:33:55;;;;;;;4.13;1.50;;;;;;;16.90;61.05;97126.78;2073558;28;20204;-62
2021/12/31 14:34:57;;;;;;;1.70;0.98;;;;;;;17.37;59.81;97129.75;2073433;28;20610;-62
2021/12/31 14:35:58;;;;;;;2.85;1.50;;;;;;;17.22;59.44;97080.81;2073047;28;20689;-62
2021/12/31 14:37:04;;;;;;;2.20;1.60;;;;;;;17.20;59.45;97133.84;2072583;28;20248;-65
2021/12/31 14:38:15;;;;;;;2.25;1.48;;;;;;;16.56;60.98;97141.03;2073587;28;20212;-62
2021/12/31 14:39:19;;;;;;;2.95;1.77;;;;;;;16.23;62.33;97131.50;2071388;28;20228;-62
2021/12/31 14:40:22;;;;;;;1.70;1.40;;;;;;;15.58;63.81;97104.19;2075992;28;20201;-62
2021/12/31 14:41:24;;;;;;;7.13;2.00;;;;;;;15.61;64.80;97123.28;2072412;28;20255;-62
2021/12/31 14:42:28;;;;;;;2.13;1.60;;;;;;;15.52;64.78;97121.38;2073227;28;20198;-62
2021/12/31 14:43:30;;;;;;;1.40;1.00;;;;;;;15.60;65.22;97118.13;2073453;28;20198;-62
2021/12/31 14:44:32;;;;;;;2.40;1.70;;;;;;;15.98;63.96;97108.91;2073455;28;20197;-62
2021/12/31 14:45:33;;;;;;;1.40;1.30;;;;;;;15.78;64.55;97094.72;2072027;28;20198;-62
2021/12/31 14:46:35;;;;;;;1.75;1.40;;;;;;;15.86;64.51;97081.72;2073039;28;20232;-62
2021/12/31 14:47:42;;;;;;;3.60;1.50;;;;;;;15.65;64.88;97084.28;2073347;28;20193;-62
2021/12/31 14:48:44;;;;;;;1.73;1.10;;;;;;;15.14;66.00;97084.88;2073440;28;20194;-62
2021/12/31 14:49:46;;;;;;;2.13;1.50;;;;;;;14.61;67.34;97032.78;2071016;28;20716;-64
2021/12/31 14:50:49;;;;;;;1.70;1.40;;;;;;;14.59;67.83;97071.59;2073299;28;20189;-64
2021/12/31 14:51:52;;;;;;;1.90;1.10;;;;;;;14.63;68.76;97071.22;2072887;28;20751;-64
2021/12/31 14:52:54;;;;;;;1.70;1.20;;;;;;;14.80;68.15;97072.56;2073418;28;20198;-64
2021/12/31 14:53:56;;;;;;;2.42;1.55;;;;;;;15.02;67.07;97068.22;2071885;28;20233;-63
2021/12/31 14:54:59;;;;;;;3.85;1.55;;;;;;;14.73;67.93;97060.81;2073485;28;20289;-63
2021/12/31 14:56:02;;;;;;;1.70;1.33;;;;;;;14.35;69.24;97056.69;2073353;28;20247;-64
2021/12/31 14:57:05;;;;;;;3.08;1.10;;;;;;;14.74;68.21;97051.97;2071152;28;20218;-63
2021/12/31 14:58:07;;;;;;;2.10;1.45;;;;;;;14.77;67.20;97056.13;2072545;28;20220;-63
2021/12/31 14:59:09;;;;;;;1.85;1.15;;;;;;;14.80;68.38;97055.91;2073270;28;20197;-64
2021/12/31 15:00:13;;;;;;;2.00;1.33;;;;;;;14.95;68.34;97046.75;2072993;28;20201;-64
2021/12/31 15:01:15;;;;;;;3.55;1.42;;;;;;;15.07;67.63;97059.94;2072097;28;20546;-64
2021/12/31 15:02:17;;;;;;;1.30;1.00;;;;;;;15.32;67.07;97074.66;2070548;28;20269;-64
2021/12/31 15:03:20;;;;;;;2.70;1.42;;;;;;;15.42;66.63;97070.31;2073275;28;20217;-64
2021/12/31 15:04:21;;;;;;;2.08;1.42;;;;;;;15.63;65.95;97076.47;2073140;28;20209;-64
2021/12/31 15:05:23;;;;;;;1.55;1.00;;;;;;;15.80;65.54;97076.94;2073030;28;20285;-64
2021/12/31 15:06:26;;;;;;;2.55;1.48;;;;;;;15.79;65.66;97096.38;2072841;28;20688;-65
2021/12/31 15:07:27;;;;;;;1.20;1.00;;;;;;;15.82;64.92;97096.13;2071818;28;20722;-65
2021/12/31 15:08:29;;;;;;;1.92;1.40;;;;;;;15.57;65.76;97102.53;2073185;28;20194;-64
2021/12/31 15:09:30;;;;;;;1.90;1.30;;;;;;;15.64;65.51;97101.06;2073120;28;20205;-64
2021/12/31 15:10:32;;;;;;;1.30;1.00;;;;;;;15.55;66.08;97097.38;2073178;28;20194;-64
2021/12/31 15:11:34;;;;;;;1.80;1.20;;;;;;;15.46;66.67;97098.13;2072783;28;20594;-64
2021/12/31 15:12:35;;;;;;;1.48;1.30;;;;;;;15.72;65.17;97103.94;2073115;28;20700;-64
2021/12/31 15:13:37;;;;;;;1.80;1.40;;;;;;;15.48;66.11;97104.09;2072935;28;20225;-64
2021/12/31 15:14:39;;;;;;;2.15;1.65;;;;;;;15.36;65.78;97053.16;2073213;28;20544;-64
2021/12/31 15:15:41;;;;;;;2.28;1.40;;;;;;;15.62;65.00;97103.00;2072629;28;20197;-64
2021/12/31 15:16:43;;;;;;;6.78;1.55;;;;;;;15.70;65.38;97103.22;2072521;28;20217;-64
2021/12/31 15:17:45;;;;;;;2.72;1.20;;;;;;;15.76;64.47;97096.66;2072695;28;20280;-64
2021/12/31 15:18:48;;;;;;;1.75;1.10;;;;;;;15.86;63.90;97094.06;2073011;28;20209;-64
2021/12/31 15:19:49;;;;;;;1.88;1.42;;;;;;;16.05;63.05;97075.72;2072895;28;20221;-64
2021/12/31 15:20:51;;;;;;;3.80;1.17;;;;;;;16.12;62.21;97086.63;2073054;28;20213;-64
2021/12/31 15:21:53;;;;;;;2.58;1.73;;;;;;;15.87;62.51;97088.66;2072553;28;20222;-64
2021/12/31 15:22:55;;;;;;;3.30;1.52;;;;;;;14.56;66.16;97082.34;2071558;28;20205;-63
2021/12/31 15:23:56;;;;;;;1.95;1.45;;;;;;;13.47;69.96;97058.94;2073122;28;20201;-64
2021/12/31 15:24:58;;;;;;;5.72;1.60;;;;;;;13.35;71.13;97085.19;2072733;28;20202;-63
2021/12/31 15:25:59;;;;;;;1.20;1.10;;;;;;;13.14;72.15;97090.16;2072400;28;20210;-63
2021/12/31 15:27:03;;;;;;;1.98;1.13;;;;;;;12.57;74.79;97083.63;2072450;28;20218;-64
2021/12/31 15:28:04;;;;;;;4.25;1.45;;;;;;;12.31;75.39;97058.28;2073075;28;20583;-63
2021/12/31 15:29:07;;;;;;;3.08;1.08;;;;;;;12.34;76.63;97087.00;2072989;28;20467;-64
2021/12/31 15:30:09;;;;;;;3.40;1.30;;;;;;;12.22;77.37;97089.50;2072387;28;20213;-64
2021/12/31 15:31:11;;;;;;;3.45;1.23;;;;;;;12.28;77.89;97088.25;2072593;28;20213;-63
2021/12/31 15:32:12;;;;;;;1.40;1.05;;;;;;;12.20;78.45;97082.69;2073172;28;20587;-64
2021/12/31 15:33:15;;;;;;;5.13;1.60;;;;;;;12.13;78.58;97097.97;2073078;28;20208;-64
2021/12/31 15:34:16;;;;;;;1.65;1.17;;;;;;;12.21;78.29;97093.09;2072929;28;20209;-64
2021/12/31 15:35:18;;;;;;;3.25;1.40;;;;;;;12.36;78.17;97091.19;2072881;28;20563;-64
2021/12/31 15:36:19;;;;;;;2.10;1.60;;;;;;;12.24;78.88;97090.22;2072251;28;20201;-63
2021/12/31 15:37:21;;;;;;;1.70;1.33;;;;;;;12.09;78.35;97072.06;2072623;28;20225;-63
2021/12/31 15:38:22;;;;;;;5.28;1.35;;;;;;;12.34;76.91;97079.94;2072478;28;20202;-63
2021/12/31 15:39:24;;;;;;;1.80;1.15;;;;;;;12.32;76.62;97081.84;2072721;28;20552;-63
2021/12/31 15:40:27;;;;;;;1.67;1.17;;;;;;;11.90;78.94;97083.78;2072866;28;20282;-63
2021/12/31 15:41:29;;;;;;;2.20;1.10;;;;;;;11.71;79.74;97072.78;2072422;28;20221;-63
2021/12/31 15:42:30;;;;;;;2.85;1.30;;;;;;;11.68;79.71;97082.56;2072441;28;20201;-63
2021/12/31 15:43:32;;;;;;;2.30;1.75;;;;;;;11.36;81.49;97075.94;2072790;28;20568;-63
2021/12/31 15:44:34;;;;;;;1.40;1.30;;;;;;;11.19;82.41;97075.25;2072342;28;20193;-64
2021/12/31 15:45:35;;;;;;;1.70;1.17;;;;;;;11.22;83.06;97080.25;2071325;28;20201;-63
2021/12/31 15:46:38;;;;;;;4.30;1.25;;;;;;;11.10;84.20;97080.22;2071486;28;20364;-63
2021/12/31 15:47:40;;;;;;;2.50;1.35;;;;;;;11.06;84.25;97092.66;2072815;28;20194;-63
2021/12/31 15:48:41;;;;;;;2.75;1.63;;;;;;;10.94;83.92;97068.06;2072966;28;20201;-63
2021/12/31 15:49:43;;;;;;;3.92;1.60;;;;;;;10.81;83.83;97054.06;2072745;28;20202;-63
2021/12/31 15:50:44;;;;;;;1.58;1.27;;;;;;;11.10;83.63;97109.88;2071675;28;20204;-63
2021/12/31 15:51:46;;;;;;;2.38;1.70;;;;;;;10.98;82.91;97100.19;2072478;28;20224;-63
2021/12/31 15:52:47;;;;;;;3.50;1.13;;;;;;;11.02;82.70;97099.03;2072924;28;20579;-63
2021/12/31 15:53:49;;;;;;;2.33;1.40;;;;;;;11.00;82.11;97107.00;2072930;28;20392;-63
2021/12/31 15:54:50;;;;;;;1.50;1.20;;;;;;;10.98;81.71;97106.25;2072871;28;20201;-65
2021/12/31 15:55:52;;;;;;;14.23;7.38;;;;;;;10.77;83.82;97097.09;2072717;28;20228;-61
2021/12/31 15:56:53;;;;;;;3.65;2.28;;;;;;;10.74;84.38;97090.28;2071297;28;20233;-60
2021/12/31 15:57:54;;;;;;;3.13;2.10;;;;;;;10.59;85.73;97084.19;2072124;28;20206;-61
2021/12/31 15:58:56;;;;;;;3.45;2.20;;;;;;;10.56;85.55;97075.69;2071513;28;20201;-62
2021/12/31 15:59:58;;;;;;;2.25;1.55;;;;;;;10.54;86.19;97091.47;2072834;28;20209;-62
2021/12/31 16:00:59;;;;;;;3.10;1.92;;;;;;;10.56;86.13;97088.78;2072806;28;20604;-61
2021/12/31 16:02:01;;;;;;;3.13;1.70;;;;;;;10.54;86.05;97091.47;2068981;28;20240;-61
2021/12/31 16:03:02;;;;;;;2.45;1.90;;;;;;;10.63;85.79;97096.16;2072888;28;20225;-61
2021/12/31 16:04:04;;;;;;;3.90;1.90;;;;;;;10.58;85.06;97094.75;2072816;28;20214;-61
2021/12/31 16:05:06;;;;;;;3.53;2.33;;;;;;;10.25;85.80;97059.16;2072921;28;20645;-61
2021/12/31 16:06:08;;;;;;;5.47;1.70;;;;;;;10.49;86.02;97099.63;2070675;28;20291;-60
2021/12/31 16:07:09;;;;;;;3.28;2.03;;;;;;;10.44;86.34;97098.22;2072692;28;20193;-60
2021/12/31 16:08:11;;;;;;;5.15;2.15;;;;;;;10.43;86.80;97101.78;2072692;28;20201;-60
2021/12/31 16:09:12;;;;;;;2.78;2.13;;;;;;;10.45;86.40;97095.50;2072735;28;20671;-60
2021/12/31 16:10:15;;;;;;;2.75;2.15;;;;;;;10.47;85.13;97098.88;2072832;28;20198;-60
2021/12/31 16:11:16;;;;;;;2.90;2.10;;;;;;;10.29;86.91;97105.19;2072258;28;20550;-60
2021/12/31 16:12:18;;;;;;;4.53;2.03;;;;;;;10.40;88.11;97113.25;2072724;28;20209;-60
2021/12/31 16:13:39;;;;;;;4.78;2.55;;;;;;;10.37;88.19;97110.84;2072084;28;20216;-60
2021/12/31 16:14:41;;;;;;;3.55;2.20;;;;;;;10.28;88.49;97103.50;2072240;28;20212;-60
2021/12/31 16:15:42;;;;;;;3.28;1.98;;;;;;;10.36;88.53;97110.94;2072762;28;20524;-60
2021/12/31 16:16:44;;;;;;;3.50;1.67;;;;;;;10.43;88.57;97112.25;2072140;28;20312;-60
2021/12/31 16:17:46;;;;;;;5.47;1.92;;;;;;;10.43;87.74;97107.03;2072213;28;20542;-60
2021/12/31 16:18:49;;;;;;;3.70;2.00;;;;;;;10.55;87.20;97115.91;2072501;28;20200;-60
2021/12/31 16:19:51;;;;;;;3.63;1.70;;;;;;;10.53;87.00;97112.53;2072678;28;20197;-60
2021/12/31 16:20:52;;;;;;;3.38;1.90;;;;;;;10.52;87.00;97119.53;2072671;28;20202;-60
2021/12/31 16:21:54;;;;;;;2.70;1.70;;;;;;;10.50;87.13;97124.03;2072274;28;20316;-60
2021/12/31 16:22:56;;;;;;;3.83;2.10;;;;;;;10.44;87.08;97117.38;2072682;28;20209;-60
2021/12/31 16:23:57;;;;;;;2.85;2.00;;;;;;;10.43;86.98;97122.72;2072686;28;20214;-60
2021/12/31 16:24:59;;;;;;;2.75;1.67;;;;;;;10.45;86.95;97126.09;2072657;28;20751;-60
2021/12/31 16:26:14;;;;;;;3.00;2.13;;;;;;;10.36;86.83;97124.84;2071539;28;20193;-60
2021/12/31 16:27:15;;;;;;;2.85;1.83;;;;;;;10.31;86.97;97129.53;2072723;28;20680;-60
2021/12/31 16:28:17;;;;;;;3.78;2.25;;;;;;;10.17;86.85;97132.06;2072743;28;20653;-60
2021/12/31 16:29:18;;;;;;;6.18;2.50;;;;;;;10.18;87.36;97121.53;2070837;28;20398;-60
2021/12/31 16:30:20;;;;;;;3.28;1.95;;;;;;;10.14;86.76;97116.56;2072714;28;20202;-60
2021/12/31 16:31:22;;;;;;;3.85;2.00;;;;;;;10.09;86.93;97122.91;2072168;28;20244;-60
2021/12/31 16:32:25;;;;;;;4.28;2.60;;;;;;;10.08;87.30;97126.44;2072652;28;20197;-60
2021/12/31 16:33:26;;;;;;;4.22;2.30;;;;;;;10.03;87.32;97128.47;2072431;28;20201;-61
2021/12/31 16:34:28;;;;;;;5.25;2.92;;;;;;;10.06;87.46;97123.09;2072576;28;20194;-61
2021/12/31 16:35:29;;;;;;;5.60;2.80;;;;;;;10.15;86.80;97128.72;2071890;28;20197;-60
2021/12/31 16:36:31;;;;;;;4.05;3.00;;;;;;;10.05;87.32;97124.00;2070097;28;20225;-61
2021/12/31 16:37:32;;;;;;;3.60;2.50;;;;;;;9.94;87.31;97102.88;2072485;28;20213;-61
2021/12/31 16:38:33;;;;;;;4.93;2.72;;;;;;;9.93;87.28;97116.88;2072207;28;20641;-61
2021/12/31 16:39:44;;;;;;;3.92;2.50;;;;;;;9.99;87.22;97128.75;2072239;28;20201;-59
2021/12/31 16:40:46;;;;;;;4.40;2.65;;;;;;;9.98;86.84;97133.16;2072250;28;20204;-60
2021/12/31 16:41:48;;;;;;;3.97;2.35;;;;;;;9.87;86.97;97135.53;2071546;28;20248;-60
2021/12/31 16:42:49;;;;;;;4.80;2.60;;;;;;;9.78;87.00;97143.91;2072428;28;20209;-59
2021/12/31 16:43:51;;;;;;;3.17;2.50;;;;;;;9.50;87.25;97114.94;2072339;28;20201;-59
2021/12/31 16:44:53;;;;;;;5.35;2.88;;;;;;;9.60;87.62;97146.63;2072413;28;20656;-59
2021/12/31 16:45:56;;;;;;;5.95;2.72;;;;;;;9.54;88.05;97159.22;2072147;28;20602;-59
2021/12/31 16:46:58;;;;;;;3.60;2.70;;;;;;;9.45;88.47;97160.59;2071847;28;20225;-59
2021/12/31 16:47:59;;;;;;;8.48;3.35;;;;;;;9.39;88.28;97160.91;2072466;28;20782;-59
2021/12/31 16:49:03;;;;;;;5.95;3.03;;;;;;;9.43;88.59;97165.91;2072502;28;20209;-59
2021/12/31 16:50:06;;;;;;;5.10;2.97;;;;;;;9.41;88.50;97170.38;2072538;28;20201;-59
2021/12/31 16:51:09;;;;;;;5.18;3.58;;;;;;;9.45;87.95;97164.03;2072171;28;20549;-60
2021/12/31 16:52:10;;;;;;;5.15;3.40;;;;;;;9.45;87.59;97176.28;2072298;28;20209;-60
2021/12/31 16:53:12;;;;;;;7.00;3.22;;;;;;;9.30;88.35;97185.78;2072562;28;20205;-60
2021/12/31 16:54:14;;;;;;;15.80;4.65;;;;;;;9.13;88.97;97173.63;2072504;28;20208;-60
2021/12/31 16:55:17;;;;;;;9.55;5.40;;;;;;;9.18;89.95;97178.63;2072520;28;20197;-60
2021/12/31 16:56:23;;;;;;;9.68;5.22;;;;;;;9.13;89.64;97181.47;2071978;28;20201;-60
2021/12/31 16:57:24;;;;;;;9.90;5.85;;;;;;;9.03;90.28;97188.94;2072523;28;20875;-60
2021/12/31 16:58:28;;;;;;;9.68;5.93;;;;;;;9.02;90.24;97189.03;2072481;28;20212;-58
2021/12/31 16:59:30;;;;;;;6.68;4.88;;;;;;;8.98;90.09;97177.06;2072536;28;20209;-61
2021/12/31 17:00:31;;;;;;;8.82;5.20;;;;;;;9.15;90.31;97184.00;2072623;28;20687;-60
2021/12/31 17:01:33;;;;;;;6.43;4.28;;;;;;;9.17;90.05;97188.19;2072009;28;20308;-59
2021/12/31 17:02:36;;;;;;;19.25;6.57;;;;;;;9.13;90.41;97189.28;2072087;28;20256;-60
2021/12/31 17:03:39;;;;;;;13.32;7.85;;;;;;;9.11;90.91;97193.75;2072242;28;20246;-59
2021/12/31 17:04:41;;;;;;;20.65;10.50;;;;;;;9.08;91.08;97188.72;2071933;28;20213;-60
2021/12/31 17:05:42;;;;;;;25.13;15.00;;;;;;;9.03;91.67;97198.56;2072486;28;20640;-58
2021/12/31 17:06:44;;;;;;;11.73;7.35;;;;;;;9.08;91.44;97189.56;2072162;28;20687;-56
2021/12/31 17:07:45;;;;;;;14.73;6.03;;;;;;;9.09;91.52;97193.88;2072086;28;20209;-58
2021/12/31 17:08:47;;;;;;;6.95;4.55;;;;;;;8.99;91.23;97184.81;2072544;28;20204;-59
2021/12/31 17:09:48;;;;;;;6.28;3.88;;;;;;;8.98;92.05;97203.19;2072260;28;20192;-60
2021/12/31 17:10:49;;;;;;;5.22;2.72;;;;;;;8.93;92.04;97206.03;2072486;28;20248;-60
2021/12/31 17:11:51;;;;;;;4.72;2.70;;;;;;;8.77;92.80;97203.38;2071690;28;20216;-60
2021/12/31 17:12:52;;;;;;;3.50;2.55;;;;;;;8.83;92.35;97205.66;2071663;28;20201;-60
2021/12/31 17:13:55;;;;;;;3.55;2.75;;;;;;;8.77;92.13;97202.53;2072602;28;20229;-60
2021/12/31 17:14:56;;;;;;;5.05;2.53;;;;;;;8.77;91.94;97211.22;2072294;28;20204;-60
2021/12/31 17:16:00;;;;;;;3.38;2.20;;;;;;;8.88;92.96;97211.50;2072468;28;20205;-60
2021/12/31 17:17:02;;;;;;;4.15;2.40;;;;;;;8.81;92.95;97186.63;2071387;28;20882;-60
2021/12/31 17:18:04;;;;;;;4.20;2.30;;;;;;;8.96;93.11;97212.84;2072308;28;20222;-60
2021/12/31 17:19:06;;;;;;;3.08;2.10;;;;;;;8.90;92.82;97217.50;2071263;28;20210;-60
2021/12/31 17:20:08;;;;;;;4.60;2.50;;;;;;;8.94;92.52;97228.63;2072439;28;20697;-60
2021/12/31 17:21:10;;;;;;;3.38;2.30;;;;;;;8.87;93.83;97211.59;2071924;28;20208;-60
2021/12/31 17:22:11;;;;;;;3.55;2.28;;;;;;;8.83;93.31;97216.13;2072453;28;20205;-60
2021/12/31 17:23:13;;;;;;;5.82;2.83;;;;;;;8.84;92.98;97222.19;2072369;28;20196;-60
2021/12/31 17:24:14;;;;;;;2.85;1.95;;;;;;;8.67;92.92;97226.50;2072364;28;20678;-60
2021/12/31 17:25:16;;;;;;;5.20;2.90;;;;;;;8.69;92.96;97221.22;2072206;28;20197;-60
2021/12/31 17:26:17;;;;;;;3.42;2.20;;;;;;;8.59;92.42;97220.00;2071904;28;20207;-60
2021/12/31 17:27:19;;;;;;;3.78;2.55;;;;;;;8.47;92.54;97232.75;2072398;28;20200;-60